Time;durP1;ratioP1;P1;durP2;ratioP2;P2;SDS_P1;SDS_P2;PMS_P1;PMS_P2;Temp;Humidity;BMP_temperature;BMP_pressure;BME280_temperature;BME280_humidity;BME280_pressure;Samples;Min_cycle;Max_cycle;Signal;HPM_P1;HPM_P2
2023/06/27 00:02:22;;;;;;;18.83;10.47;;;;;;;;;;6172315;28;20414;-60
2023/06/27 00:05:22;;;;;;;21.17;10.57;;;;;;;;;;6168378;28;20251;-53
2023/06/27 00:08:23;;;;;;;24.10;11.43;;;;;;;;;;6171968;28;20544;-59
2023/06/27 00:11:24;;;;;;;23.10;11.57;;;;;;;;;;6170605;28;20100;-58
2023/06/27 00:14:25;;;;;;;22.73;11.57;;;;;;;;;;6177275;28;20050;-59
2023/06/27 00:17:25;;;;;;;22.13;11.03;;;;;;;;;;6171612;28;20659;-57
2023/06/27 00:20:27;;;;;;;21.80;11.20;;;;;;;;;;6175692;28;20054;-58
2023/06/27 00:23:33;;;;;;;16.45;9.80;;;;;;;;;;6175032;28;20129;-59
2023/06/27 00:26:33;;;;;;;22.15;10.25;;;;;;;;;;6174829;28;20491;-59
2023/06/27 00:29:34;;;;;;;18.73;11.00;;;;;;;;;;6170585;28;20057;-55
2023/06/27 00:32:35;;;;;;;18.57;10.10;;;;;;;;;;6174544;28;20108;-59
2023/06/27 00:35:38;;;;;;;21.57;11.20;;;;;;;;;;6172817;28;20057;-55
2023/06/27 00:38:39;;;;;;;18.48;10.63;;;;;;;;;;6170596;28;20056;-58
2023/06/27 00:41:40;;;;;;;22.57;10.17;;;;;;;;;;6170440;28;20046;-56
2023/06/27 00:44:40;;;;;;;20.87;10.70;;;;;;;;;;6171950;28;20050;-58
2023/06/27 00:47:41;;;;;;;22.10;11.10;;;;;;;;;;6172491;28;20043;-60
2023/06/27 00:50:44;;;;;;;20.47;10.93;;;;;;;;;;6172583;28;20050;-57
2023/06/27 00:53:45;;;;;;;19.40;11.38;;;;;;;;;;6174044;28;20042;-58
2023/06/27 00:56:48;;;;;;;21.30;11.37;;;;;;;;;;6179627;28;20129;-60
2023/06/27 00:59:50;;;;;;;20.17;11.23;;;;;;;;;;6174652;28;20047;-60
2023/06/27 01:02:50;;;;;;;22.27;11.90;;;;;;;;;;6167452;28;20526;-56
2023/06/27 01:05:52;;;;;;;20.63;12.77;;;;;;;;;;6171913;28;20039;-57
2023/06/27 01:08:58;;;;;;;20.77;11.63;;;;;;;;;;6172367;28;20047;-55
2023/06/27 01:12:23;;;;;;;23.90;12.48;;;;;;;;;;6174807;28;20382;-53
2023/06/27 01:15:25;;;;;;;23.55;12.07;;;;;;;;;;6172646;28;20323;-59
2023/06/27 01:18:28;;;;;;;19.25;11.02;;;;;;;;;;6172732;28;20046;-60
2023/06/27 01:21:31;;;;;;;19.23;11.30;;;;;;;;;;6170497;28;20137;-57
2023/06/27 01:24:32;;;;;;;21.63;11.90;;;;;;;;;;6174186;28;20054;-57
2023/06/27 01:27:33;;;;;;;20.17;11.33;;;;;;;;;;6168761;28;20445;-60
2023/06/27 01:30:34;;;;;;;19.27;10.75;;;;;;;;;;6167613;28;20557;-59
2023/06/27 01:33:48;;;;;;;22.00;12.00;;;;;;;;;;6170198;28;20038;-58
2023/06/27 01:37:05;;;;;;;24.75;12.27;;;;;;;;;;6178177;28;20506;-60
2023/06/27 01:40:10;;;;;;;19.52;11.95;;;;;;;;;;6178991;28;20055;-60
2023/06/27 01:43:14;;;;;;;20.85;12.75;;;;;;;;;;6176169;28;20043;-60
2023/06/27 01:46:15;;;;;;;23.65;13.25;;;;;;;;;;6178858;28;20083;-60
2023/06/27 01:49:17;;;;;;;26.88;16.08;;;;;;;;;;6175313;28;20141;-61
2023/06/27 01:52:19;;;;;;;27.97;15.90;;;;;;;;;;6177820;28;20046;-61
2023/06/27 01:55:19;;;;;;;;;;;;;;;;;;6177198;28;20050;-59
2023/06/27 01:58:20;;;;;;;27.02;14.73;;;;;;;;;;6173251;28;19925;-57
2023/06/27 02:01:20;;;;;;;27.33;15.23;;;;;;;;;;6177652;28;20046;-60
2023/06/27 02:04:21;;;;;;;30.37;17.03;;;;;;;;;;6179151;28;20619;-61
2023/06/27 02:07:21;;;;;;;30.53;16.40;;;;;;;;;;6175876;28;20125;-62
2023/06/27 02:10:23;;;;;;;27.63;16.03;;;;;;;;;;6179970;28;20052;-58
2023/06/27 02:13:23;;;;;;;26.63;15.17;;;;;;;;;;6178862;28;20343;-60
2023/06/27 02:16:24;;;;;;;25.37;16.13;;;;;;;;;;6176836;28;20137;-57
2023/06/27 02:19:24;;;;;;;28.27;16.67;;;;;;;;;;6175617;28;20050;-61
2023/06/27 02:22:25;;;;;;;28.50;16.47;;;;;;;;;;6176918;28;20574;-61
2023/06/27 02:25:26;;;;;;;27.43;16.50;;;;;;;;;;6185668;28;20058;-61
2023/06/27 02:28:26;;;;;;;37.17;18.17;;;;;;;;;;6180720;28;20129;-57
2023/06/27 02:31:27;;;;;;;28.67;17.33;;;;;;;;;;6186552;28;20042;-61
2023/06/27 02:34:28;;;;;;;33.63;17.63;;;;;;;;;;6174398;28;20555;-56
2023/06/27 02:37:29;;;;;;;31.08;17.15;;;;;;;;;;6172639;28;20042;-60
2023/06/27 02:40:30;;;;;;;31.27;17.30;;;;;;;;;;6172347;28;20062;-61
2023/06/27 02:43:30;;;;;;;27.97;17.63;;;;;;;;;;6171756;28;20043;-61
2023/06/27 02:46:31;;;;;;;31.37;17.67;;;;;;;;;;6175480;28;20073;-59
2023/06/27 02:49:31;;;;;;;28.23;16.90;;;;;;;;;;6173338;28;20057;-60
2023/06/27 02:52:32;;;;;;;29.87;16.77;;;;;;;;;;6171812;28;20158;-60
2023/06/27 02:55:32;;;;;;;32.70;17.43;;;;;;;;;;6176433;28;20042;-60
2023/06/27 02:58:34;;;;;;;29.33;16.53;;;;;;;;;;6173053;28;20450;-61
2023/06/27 03:01:34;;;;;;;27.80;16.30;;;;;;;;;;6171493;28;20039;-61
2023/06/27 03:04:36;;;;;;;30.87;17.17;;;;;;;;;;6169501;28;20458;-60
2023/06/27 03:07:37;;;;;;;28.65;15.55;;;;;;;;;;6173492;28;20042;-57
2023/06/27 03:10:37;;;;;;;27.70;16.63;;;;;;;;;;6174594;28;20077;-61
2023/06/27 03:13:38;;;;;;;28.77;16.20;;;;;;;;;;6173042;28;20047;-58
2023/06/27 03:16:38;;;;;;;26.83;15.17;;;;;;;;;;6173694;28;20078;-61
2023/06/27 03:19:39;;;;;;;26.43;15.40;;;;;;;;;;6173094;28;20394;-60
2023/06/27 03:22:40;;;;;;;26.73;15.87;;;;;;;;;;6169380;28;20683;-61
2023/06/27 03:25:40;;;;;;;27.77;16.10;;;;;;;;;;6172036;28;20058;-55
2023/06/27 03:28:41;;;;;;;26.03;14.93;;;;;;;;;;6173109;28;20127;-59
2023/06/27 03:31:42;;;;;;;25.13;16.30;;;;;;;;;;6171008;28;20066;-61
2023/06/27 03:34:43;;;;;;;26.40;14.87;;;;;;;;;;6174300;28;20039;-60
2023/06/27 03:37:43;;;;;;;23.87;15.00;;;;;;;;;;6172697;28;21075;-55
2023/06/27 03:40:44;;;;;;;24.67;14.87;;;;;;;;;;6171625;28;20074;-58
2023/06/27 03:43:44;;;;;;;24.77;15.17;;;;;;;;;;6173538;28;20050;-58
2023/06/27 03:46:45;;;;;;;25.77;14.57;;;;;;;;;;6171409;28;20050;-61
2023/06/27 03:49:46;;;;;;;25.57;14.67;;;;;;;;;;6183757;28;20058;-61
2023/06/27 03:52:46;;;;;;;27.30;15.10;;;;;;;;;;6172375;28;20134;-56
2023/06/27 03:55:47;;;;;;;23.67;15.00;;;;;;;;;;6171865;28;20053;-61
2023/06/27 03:58:47;;;;;;;28.40;15.27;;;;;;;;;;6172168;28;20105;-60
2023/06/27 04:01:48;;;;;;;25.70;14.83;;;;;;;;;;6173553;28;20120;-62
2023/06/27 04:04:49;;;;;;;27.13;15.17;;;;;;;;;;6181527;28;20474;-61
2023/06/27 04:07:49;;;;;;;22.43;14.97;;;;;;;;;;6175212;28;20073;-62
2023/06/27 04:10:50;;;;;;;22.30;13.23;;;;;;;;;;6172529;28;20074;-55
2023/06/27 04:13:51;;;;;;;20.60;12.97;;;;;;;;;;6171171;28;20513;-62
2023/06/27 04:16:52;;;;;;;17.80;11.65;;;;;;;;;;6171487;28;20169;-61
2023/06/27 04:19:53;;;;;;;21.30;12.65;;;;;;;;;;6175061;28;20046;-61
2023/06/27 04:22:53;;;;;;;25.90;13.80;;;;;;;;;;6171441;28;20525;-61
2023/06/27 04:26:07;;;;;;;23.80;14.37;;;;;;;;;;6171646;28;20082;-57
2023/06/27 04:29:08;;;;;;;21.35;14.65;;;;;;;;;;6170165;28;20432;-59
2023/06/27 04:32:09;;;;;;;25.10;15.73;;;;;;;;;;6173432;28;20057;-54
2023/06/27 04:35:15;;;;;;;28.93;16.93;;;;;;;;;;6168820;28;20054;-61
2023/06/27 04:38:16;;;;;;;27.25;16.40;;;;;;;;;;6175125;28;20089;-61
2023/06/27 04:41:17;;;;;;;29.87;17.93;;;;;;;;;;6169076;28;20144;-60
2023/06/27 04:44:17;;;;;;;29.83;18.53;;;;;;;;;;6170695;28;20455;-61
2023/06/27 04:47:18;;;;;;;32.13;17.97;;;;;;;;;;6173523;28;20042;-61
2023/06/27 04:50:19;;;;;;;31.20;18.17;;;;;;;;;;6173660;28;20046;-60
2023/06/27 04:53:23;;;;;;;29.92;17.65;;;;;;;;;;6168566;28;20053;-59
2023/06/27 04:56:25;;;;;;;26.00;15.85;;;;;;;;;;6170343;28;20520;-57
2023/06/27 04:59:25;;;;;;;;;;;;;;;;;;6173303;28;20052;-59
2023/06/27 05:02:26;;;;;;;22.02;12.80;;;;;;;;;;6168619;28;20365;-57
2023/06/27 05:05:32;;;;;;;21.67;12.07;;;;;;;;;;6170870;28;20537;-61
2023/06/27 05:08:34;;;;;;;23.13;12.43;;;;;;;;;;6186562;28;20047;-61
2023/06/27 05:11:35;;;;;;;24.52;12.32;;;;;;;;;;6175649;28;20521;-61
2023/06/27 05:14:36;;;;;;;22.37;12.43;;;;;;;;;;6171887;28;20050;-60
2023/06/27 05:17:36;;;;;;;22.47;12.57;;;;;;;;;;6175526;28;20043;-61
2023/06/27 05:20:37;;;;;;;21.47;13.00;;;;;;;;;;6174789;28;20535;-58
2023/06/27 05:23:38;;;;;;;20.35;12.20;;;;;;;;;;6175190;28;20062;-61
2023/06/27 05:26:38;;;;;;;21.50;12.60;;;;;;;;;;6174167;28;20038;-62
2023/06/27 05:29:39;;;;;;;18.43;12.27;;;;;;;;;;6175504;28;20077;-61
2023/06/27 05:32:39;;;;;;;21.90;11.97;;;;;;;;;;6176141;28;20482;-55
2023/06/27 05:35:40;;;;;;;23.08;12.18;;;;;;;;;;6175385;28;20042;-62
2023/06/27 05:38:40;;;;;;;19.77;11.40;;;;;;;;;;6177508;28;20043;-58
2023/06/27 05:41:41;;;;;;;21.27;12.00;;;;;;;;;;6176302;28;20125;-61
2023/06/27 05:44:41;;;;;;;22.48;12.13;;;;;;;;;;6175427;28;20362;-60
2023/06/27 05:47:43;;;;;;;20.03;11.23;;;;;;;;;;6176362;28;20065;-61
2023/06/27 05:50:43;;;;;;;23.85;12.35;;;;;;;;;;6176101;28;20054;-55
2023/06/27 05:53:44;;;;;;;18.60;11.83;;;;;;;;;;6173519;28;20054;-60
2023/06/27 05:56:45;;;;;;;16.33;10.53;;;;;;;;;;6176719;28;20046;-61
2023/06/27 05:59:45;;;;;;;19.75;11.15;;;;;;;;;;6177521;28;21818;-61
2023/06/27 06:02:47;;;;;;;19.98;12.07;;;;;;;;;;6174532;28;20053;-61
2023/06/27 06:05:48;;;;;;;23.92;12.70;;;;;;;;;;6171490;28;20541;-58
2023/06/27 06:08:48;;;;;;;19.57;10.97;;;;;;;;;;6175623;28;20043;-60
2023/06/27 06:11:49;;;;;;;20.20;12.07;;;;;;;;;;6174165;28;20043;-60
2023/06/27 06:14:50;;;;;;;21.63;12.80;;;;;;;;;;6174188;28;20425;-59
2023/06/27 06:17:50;;;;;;;22.17;13.17;;;;;;;;;;6172205;28;20477;-59
2023/06/27 06:20:51;;;;;;;21.63;13.13;;;;;;;;;;6173101;28;20060;-60
2023/06/27 06:23:51;;;;;;;28.23;14.15;;;;;;;;;;6168315;28;20109;-61
2023/06/27 06:26:52;;;;;;;22.03;12.87;;;;;;;;;;6174505;28;20494;-60
2023/06/27 06:29:53;;;;;;;24.77;13.02;;;;;;;;;;6175677;28;20054;-58
2023/06/27 06:32:54;;;;;;;18.03;11.80;;;;;;;;;;6175117;28;20120;-61
2023/06/27 06:35:54;;;;;;;27.47;13.03;;;;;;;;;;6175257;28;20046;-60
2023/06/27 06:38:55;;;;;;;21.17;12.95;;;;;;;;;;6171996;28;20098;-61
2023/06/27 06:41:55;;;;;;;27.03;13.40;;;;;;;;;;6174899;28;20454;-62
2023/06/27 06:44:56;;;;;;;29.20;13.27;;;;;;;;;;6171025;28;20045;-55
2023/06/27 06:47:59;;;;;;;24.05;13.23;;;;;;;;;;6176331;28;20061;-61
2023/06/27 06:50:59;;;;;;;21.75;13.63;;;;;;;;;;6173685;28;20057;-62
2023/06/27 06:54:00;;;;;;;24.93;12.97;;;;;;;;;;6174576;28;20168;-61
2023/06/27 06:57:00;;;;;;;25.30;15.10;;;;;;;;;;6177519;28;20050;-59
2023/06/27 07:00:04;;;;;;;25.43;14.40;;;;;;;;;;6193194;28;20185;-59
2023/06/27 07:03:08;;;;;;;26.13;14.00;;;;;;;;;;6172456;28;20120;-61
2023/06/27 07:06:09;;;;;;;25.60;14.68;;;;;;;;;;6171233;28;20056;-58
2023/06/27 07:09:10;;;;;;;29.27;15.60;;;;;;;;;;6171886;28;20050;-60
2023/06/27 07:12:11;;;;;;;31.27;16.30;;;;;;;;;;6172404;28;20081;-59
2023/06/27 07:15:11;;;;;;;28.53;16.47;;;;;;;;;;6173773;28;20619;-61
2023/06/27 07:18:12;;;;;;;26.47;15.90;;;;;;;;;;6176032;28;20055;-59
2023/06/27 07:21:12;;;;;;;25.73;15.50;;;;;;;;;;6170252;28;20043;-61
2023/06/27 07:24:13;;;;;;;27.77;15.87;;;;;;;;;;6169263;28;20186;-61
2023/06/27 07:27:13;;;;;;;30.50;15.37;;;;;;;;;;6173899;28;20051;-61
2023/06/27 07:30:15;;;;;;;27.35;14.77;;;;;;;;;;6172565;28;20121;-60
2023/06/27 07:33:15;;;;;;;29.03;16.80;;;;;;;;;;6172206;28;20055;-61
2023/06/27 07:36:16;;;;;;;30.83;16.27;;;;;;;;;;6169969;28;20628;-61
2023/06/27 07:39:16;;;;;;;25.10;15.40;;;;;;;;;;6172380;28;20038;-59
2023/06/27 07:42:17;;;;;;;28.17;15.50;;;;;;;;;;6171016;28;20330;-61
2023/06/27 07:45:17;;;;;;;26.50;16.53;;;;;;;;;;6172062;28;20047;-60
2023/06/27 07:48:18;;;;;;;25.70;16.13;;;;;;;;;;6174220;28;20053;-58
2023/06/27 07:51:19;;;;;;;25.97;16.20;;;;;;;;;;6172026;28;20054;-58
2023/06/27 07:54:21;;;;;;;27.83;16.20;;;;;;;;;;6171688;28;20565;-60
2023/06/27 07:57:21;;;;;;;28.42;17.27;;;;;;;;;;6178989;28;20112;-60
2023/06/27 08:00:22;;;;;;;33.80;17.33;;;;;;;;;;6174989;28;20047;-60
2023/06/27 08:03:24;;;;;;;28.33;17.90;;;;;;;;;;6171105;28;20063;-56
2023/06/27 08:06:25;;;;;;;26.85;17.08;;;;;;;;;;6177305;28;20129;-60
2023/06/27 08:09:25;;;;;;;29.90;17.50;;;;;;;;;;6173981;28;20737;-61
2023/06/27 08:12:26;;;;;;;26.73;16.38;;;;;;;;;;6173608;28;20070;-61
2023/06/27 08:15:27;;;;;;;24.47;15.87;;;;;;;;;;6171451;28;20058;-61
2023/06/27 08:18:27;;;;;;;31.53;15.13;;;;;;;;;;6173179;28;20474;-60
2023/06/27 08:21:28;;;;;;;26.90;16.00;;;;;;;;;;6172465;28;20047;-57
2023/06/27 08:24:29;;;;;;;24.95;15.57;;;;;;;;;;6168967;28;20787;-60
2023/06/27 08:27:29;;;;;;;27.90;15.83;;;;;;;;;;6170844;28;20050;-59
2023/06/27 08:30:31;;;;;;;29.67;15.67;;;;;;;;;;6171618;28;20042;-60
2023/06/27 08:33:31;;;;;;;27.33;16.50;;;;;;;;;;6169656;28;20116;-59
2023/06/27 08:36:32;;;;;;;30.77;17.10;;;;;;;;;;6171861;28;20429;-61
2023/06/27 08:39:33;;;;;;;26.90;16.40;;;;;;;;;;6172228;28;20042;-58
2023/06/27 08:42:33;;;;;;;24.93;15.80;;;;;;;;;;6170354;28;20051;-57
2023/06/27 08:45:35;;;;;;;30.07;15.87;;;;;;;;;;6169402;28;20065;-60
2023/06/27 08:48:43;;;;;;;22.02;14.75;;;;;;;;;;6170338;28;20713;-60
2023/06/27 08:51:48;;;;;;;25.60;15.70;;;;;;;;;;6170678;28;20137;-60
2023/06/27 08:54:53;;;;;;;21.73;15.07;;;;;;;;;;6173667;28;20056;-60
2023/06/27 08:57:57;;;;;;;21.75;13.73;;;;;;;;;;6168578;28;20434;-61
2023/06/27 09:00:58;;;;;;;21.42;13.30;;;;;;;;;;6168369;28;20455;-57
2023/06/27 09:04:00;;;;;;;22.80;13.73;;;;;;;;;;6166707;28;20130;-62
2023/06/27 09:07:06;;;;;;;20.95;11.38;;;;;;;;;;6170343;28;20126;-61
2023/06/27 09:10:08;;;;;;;17.17;10.85;;;;;;;;;;6171789;28;20046;-60
2023/06/27 09:13:09;;;;;;;17.23;9.88;;;;;;;;;;6171920;28;20432;-61
2023/06/27 09:16:09;;;;;;;18.43;11.37;;;;;;;;;;6169278;28;20058;-61
2023/06/27 09:19:11;;;;;;;22.03;12.07;;;;;;;;;;6172566;28;20057;-57
2023/06/27 09:22:11;;;;;;;20.88;11.45;;;;;;;;;;6171311;28;20116;-61
2023/06/27 09:25:14;;;;;;;20.47;12.30;;;;;;;;;;6167552;28;20501;-62
2023/06/27 09:28:16;;;;;;;17.80;12.13;;;;;;;;;;6168657;28;20300;-61
2023/06/27 09:31:21;;;;;;;17.80;11.75;;;;;;;;;;6172140;28;20053;-60
2023/06/27 09:34:27;;;;;;;20.08;11.43;;;;;;;;;;6169986;28;20126;-58
2023/06/27 09:37:30;;;;;;;14.98;10.50;;;;;;;;;;6171411;28;20043;-61
2023/06/27 09:40:35;;;;;;;17.27;10.70;;;;;;;;;;6174518;28;20043;-60
2023/06/27 09:43:36;;;;;;;17.10;9.48;;;;;;;;;;6171652;28;20121;-58
2023/06/27 09:46:36;;;;;;;17.73;10.70;;;;;;;;;;6165864;28;20054;-60
2023/06/27 09:49:41;;;;;;;18.77;10.13;;;;;;;;;;6170632;28;20046;-56
2023/06/27 09:52:52;;;;;;;15.40;9.40;;;;;;;;;;6170987;28;20053;-61
2023/06/27 09:56:00;;;;;;;20.20;10.88;;;;;;;;;;6175066;28;20134;-59
2023/06/27 09:59:11;;;;;;;15.98;9.40;;;;;;;;;;6173872;28;20046;-60
2023/06/27 10:02:13;;;;;;;14.50;10.25;;;;;;;;;;6175745;28;20043;-61
2023/06/27 10:05:14;;;;;;;14.00;9.60;;;;;;;;;;6176512;28;20053;-61
2023/06/27 10:08:15;;;;;;;17.75;9.55;;;;;;;;;;6174511;28;20552;-59
2023/06/27 10:11:16;;;;;;;20.10;10.90;;;;;;;;;;6174830;28;20059;-61
2023/06/27 10:14:18;;;;;;;15.53;10.63;;;;;;;;;;6172461;28;20454;-57
2023/06/27 10:17:19;;;;;;;;;;;;;;;;;;6173134;28;20038;-61
2023/06/27 10:20:20;;;;;;;16.60;9.00;;;;;;;;;;6174796;28;19925;-60
2023/06/27 10:23:21;;;;;;;17.40;8.40;;;;;;;;;;6173709;28;20059;-59
2023/06/27 10:26:25;;;;;;;15.88;8.38;;;;;;;;;;6173684;28;20409;-52
2023/06/27 10:29:30;;;;;;;16.20;8.77;;;;;;;;;;6172986;28;20689;-57
2023/06/27 10:32:44;;;;;;;15.93;8.73;;;;;;;;;;6176972;28;20584;-59
2023/06/27 10:35:50;;;;;;;16.20;8.07;;;;;;;;;;6175327;28;20065;-59
2023/06/27 10:38:51;;;;;;;9.23;6.50;;;;;;;;;;6172273;28;20043;-55
2023/06/27 10:41:58;;;;;;;13.80;6.07;;;;;;;;;;6175365;28;20046;-60
2023/06/27 10:45:07;;;;;;;12.13;6.38;;;;;;;;;;6175695;28;20057;-60
2023/06/27 10:48:08;;;;;;;11.70;6.15;;;;;;;;;;6173849;28;20070;-58
2023/06/27 10:51:10;;;;;;;12.10;6.47;;;;;;;;;;6170236;28;20581;-60
2023/06/27 10:54:12;;;;;;;14.02;5.63;;;;;;;;;;6171463;28;20130;-60
2023/06/27 10:57:15;;;;;;;;;;;;;;;;;;6173847;28;20122;-60
2023/06/27 11:00:22;;;;;;;11.93;4.78;;;;;;;;;;6172991;28;19926;-60
2023/06/27 11:03:27;;;;;;;9.00;4.47;;;;;;;;;;6171345;28;20149;-60
2023/06/27 11:06:40;;;;;;;12.65;5.50;;;;;;;;;;6179675;28;20042;-60
2023/06/27 11:09:54;;;;;;;12.00;5.03;;;;;;;;;;6171272;28;20057;-61
2023/06/27 11:13:15;;;;;;;11.48;5.38;;;;;;;;;;6165076;28;20473;-58
2023/06/27 11:16:22;;;;;;;13.25;5.10;;;;;;;;;;6170053;28;20050;-59
2023/06/27 11:19:23;;;;;;;13.20;5.75;;;;;;;;;;6163382;28;20043;-61
2023/06/27 11:22:24;;;;;;;10.30;5.67;;;;;;;;;;6169292;28;20077;-60
2023/06/27 11:25:25;;;;;;;10.77;5.20;;;;;;;;;;6166241;28;20054;-60
2023/06/27 11:28:26;;;;;;;12.77;5.67;;;;;;;;;;6166890;28;20042;-60
2023/06/27 11:31:26;;;;;;;13.33;5.13;;;;;;;;;;6166361;28;20042;-58
2023/06/27 11:34:27;;;;;;;9.63;5.20;;;;;;;;;;6165193;28;20052;-60
2023/06/27 11:37:28;;;;;;;14.52;5.90;;;;;;;;;;6168111;28;20047;-57
2023/06/27 11:40:30;;;;;;;12.03;5.97;;;;;;;;;;6169338;28;20054;-56
2023/06/27 11:43:30;;;;;;;12.98;5.25;;;;;;;;;;6165992;28;20043;-60
2023/06/27 11:46:31;;;;;;;10.50;5.80;;;;;;;;;;6168237;28;20510;-57
2023/06/27 11:49:31;;;;;;;12.17;6.00;;;;;;;;;;6165198;28;20050;-60
2023/06/27 11:52:35;;;;;;;13.20;6.20;;;;;;;;;;6168509;28;20042;-59
2023/06/27 11:55:41;;;;;;;10.07;6.50;;;;;;;;;;6164148;28;20665;-59
2023/06/27 11:58:45;;;;;;;11.70;5.82;;;;;;;;;;6163041;28;20050;-60
2023/06/27 12:01:46;;;;;;;11.80;5.30;;;;;;;;;;6166560;28;20703;-56
2023/06/27 12:04:56;;;;;;;12.23;5.73;;;;;;;;;;6164119;28;20043;-57
2023/06/27 12:08:06;;;;;;;11.23;4.80;;;;;;;;;;6167841;28;20482;-54
2023/06/27 12:11:09;;;;;;;10.77;4.65;;;;;;;;;;6166871;28;20579;-56
2023/06/27 12:14:09;;;;;;;10.27;4.45;;;;;;;;;;6168905;28;20549;-57
2023/06/27 12:17:21;;;;;;;10.87;4.67;;;;;;;;;;6165691;28;21020;-55
2023/06/27 12:20:25;;;;;;;11.98;4.70;;;;;;;;;;6165716;28;20430;-57
2023/06/27 12:23:29;;;;;;;10.73;4.32;;;;;;;;;;6166385;28;20057;-58
2023/06/27 12:26:30;;;;;;;11.73;5.05;;;;;;;;;;6164601;28;20522;-58
2023/06/27 12:29:31;;;;;;;14.10;4.83;;;;;;;;;;6165774;28;20050;-56
2023/06/27 12:32:31;;;;;;;12.50;5.03;;;;;;;;;;6163856;28;20073;-57
2023/06/27 12:35:32;;;;;;;11.00;5.37;;;;;;;;;;6164240;28;20577;-53
2023/06/27 12:38:33;;;;;;;14.27;5.40;;;;;;;;;;6160586;28;20043;-57
2023/06/27 12:41:33;;;;;;;9.97;4.93;;;;;;;;;;6162767;28;20475;-58
2023/06/27 12:44:34;;;;;;;10.70;4.90;;;;;;;;;;6167134;28;20085;-59
2023/06/27 12:47:36;;;;;;;9.80;5.07;;;;;;;;;;6164659;28;20074;-58
2023/06/27 12:50:36;;;;;;;11.85;5.07;;;;;;;;;;6163411;28;20508;-61
2023/06/27 12:53:37;;;;;;;15.73;5.30;;;;;;;;;;6165577;28;20050;-56
2023/06/27 12:56:38;;;;;;;15.97;5.80;;;;;;;;;;6162850;28;20105;-57
2023/06/27 12:59:38;;;;;;;13.23;5.50;;;;;;;;;;6164669;28;20116;-55
2023/06/27 13:02:39;;;;;;;12.23;4.70;;;;;;;;;;6167122;28;20445;-55
2023/06/27 13:05:41;;;;;;;9.80;5.38;;;;;;;;;;6163186;28;20276;-54
2023/06/27 13:08:41;;;;;;;11.20;5.27;;;;;;;;;;6163307;28;20506;-57
2023/06/27 13:11:42;;;;;;;16.97;5.93;;;;;;;;;;6165161;28;20308;-59
2023/06/27 13:14:42;;;;;;;13.40;6.77;;;;;;;;;;6165156;28;20042;-59
2023/06/27 13:17:43;;;;;;;14.67;5.37;;;;;;;;;;6165910;28;20510;-53
2023/06/27 13:20:45;;;;;;;13.27;5.17;;;;;;;;;;6160898;28;20046;-58
2023/06/27 13:23:48;;;;;;;11.25;4.90;;;;;;;;;;6161893;28;20058;-57
2023/06/27 13:26:48;;;;;;;;;;;;;;;;;;6162043;28;20113;-60
2023/06/27 13:29:49;;;;;;;12.85;5.13;;;;;;;;;;6167594;28;20013;-59
2023/06/27 13:32:49;;;;;;;12.73;4.87;;;;;;;;;;6173094;28;20588;-54
2023/06/27 13:35:50;;;;;;;9.90;4.70;;;;;;;;;;6168016;28;20212;-54
2023/06/27 13:38:51;;;;;;;13.97;4.90;;;;;;;;;;6167374;28;20465;-57
2023/06/27 13:41:51;;;;;;;12.37;4.80;;;;;;;;;;6176143;28;20141;-59
2023/06/27 13:44:52;;;;;;;9.60;4.30;;;;;;;;;;6172283;28;20465;-56
2023/06/27 13:47:53;;;;;;;10.73;4.30;;;;;;;;;;6174251;28;20061;-58
2023/06/27 13:50:53;;;;;;;16.17;4.93;;;;;;;;;;6170065;28;20062;-56
2023/06/27 13:53:54;;;;;;;14.13;5.10;;;;;;;;;;6170709;28;20160;-60
2023/06/27 13:56:54;;;;;;;14.57;4.90;;;;;;;;;;6172046;28;20076;-58
2023/06/27 13:59:55;;;;;;;14.70;5.30;;;;;;;;;;6168827;28;20162;-60
2023/06/27 14:02:55;;;;;;;10.87;5.10;;;;;;;;;;6176452;28;20062;-56
2023/06/27 14:05:56;;;;;;;14.20;5.60;;;;;;;;;;6176590;28;21378;-58
2023/06/27 14:08:57;;;;;;;16.37;5.70;;;;;;;;;;6168746;28;20058;-57
2023/06/27 14:11:58;;;;;;;14.07;5.43;;;;;;;;;;6174822;28;20094;-56
2023/06/27 14:14:59;;;;;;;11.70;5.40;;;;;;;;;;6178951;28;20109;-59
2023/06/27 14:18:00;;;;;;;9.50;5.03;;;;;;;;;;6174860;28;20057;-58
2023/06/27 14:21:04;;;;;;;13.83;5.53;;;;;;;;;;6166796;28;20055;-59
2023/06/27 14:24:05;;;;;;;11.52;5.85;;;;;;;;;;6168134;28;20469;-58
2023/06/27 14:27:06;;;;;;;14.27;5.63;;;;;;;;;;6165722;28;20054;-57
2023/06/27 14:30:07;;;;;;;9.33;4.90;;;;;;;;;;6164130;28;20054;-55
2023/06/27 14:33:08;;;;;;;13.68;6.00;;;;;;;;;;6166667;28;20474;-58
2023/06/27 14:36:09;;;;;;;14.60;6.22;;;;;;;;;;6169166;28;20101;-57
2023/06/27 14:39:10;;;;;;;17.87;5.50;;;;;;;;;;6165501;28;21087;-59
2023/06/27 14:42:11;;;;;;;17.73;5.93;;;;;;;;;;6170297;28;20231;-55
2023/06/27 14:45:11;;;;;;;18.23;5.97;;;;;;;;;;6166320;28;20078;-60
2023/06/27 14:48:13;;;;;;;12.37;5.90;;;;;;;;;;6164002;28;20487;-54
2023/06/27 14:51:13;;;;;;;16.58;6.88;;;;;;;;;;6165349;28;20121;-58
2023/06/27 14:54:14;;;;;;;20.37;7.30;;;;;;;;;;6167623;28;20150;-55
2023/06/27 14:57:16;;;;;;;14.10;6.50;;;;;;;;;;6167862;28;20445;-59
2023/06/27 15:00:19;;;;;;;12.73;6.20;;;;;;;;;;6164423;28;20046;-56
2023/06/27 15:03:19;;;;;;;13.98;6.30;;;;;;;;;;6165225;28;20086;-58
2023/06/27 15:06:20;;;;;;;11.57;6.33;;;;;;;;;;6164368;28;20143;-54
2023/06/27 15:09:20;;;;;;;16.33;6.37;;;;;;;;;;6162511;28;20059;-52
2023/06/27 15:12:21;;;;;;;14.10;6.13;;;;;;;;;;6166715;28;20058;-58
2023/06/27 15:15:22;;;;;;;16.07;6.60;;;;;;;;;;6167077;28;20149;-57
2023/06/27 15:18:23;;;;;;;12.20;5.90;;;;;;;;;;6162983;28;20054;-55
2023/06/27 15:21:24;;;;;;;10.83;5.60;;;;;;;;;;6164221;28;20141;-59
2023/06/27 15:24:24;;;;;;;10.82;5.18;;;;;;;;;;6123556;28;1211194;-58
2023/06/27 15:27:25;;;;;;;15.97;5.53;;;;;;;;;;6166378;28;20065;-56
2023/06/27 15:30:26;;;;;;;11.15;4.97;;;;;;;;;;6164963;28;20058;-53
2023/06/27 15:33:26;;;;;;;16.10;5.70;;;;;;;;;;6170712;28;20057;-54
2023/06/27 15:36:27;;;;;;;10.57;5.10;;;;;;;;;;6167453;28;20707;-54
2023/06/27 15:39:28;;;;;;;17.93;5.27;;;;;;;;;;6164052;28;20046;-58
2023/06/27 15:42:28;;;;;;;11.20;5.00;;;;;;;;;;6168533;28;20059;-60
2023/06/27 15:45:31;;;;;;;10.80;5.10;;;;;;;;;;6165709;28;20130;-55
2023/06/27 15:48:32;;;;;;;12.77;4.97;;;;;;;;;;6165437;28;21495;-56
2023/06/27 15:51:33;;;;;;;14.90;5.20;;;;;;;;;;6170551;28;20050;-56
2023/06/27 15:54:33;;;;;;;13.00;5.18;;;;;;;;;;6173981;28;20065;-55
2023/06/27 15:57:34;;;;;;;11.20;4.63;;;;;;;;;;6164908;28;20409;-56
2023/06/27 16:00:35;;;;;;;20.57;5.20;;;;;;;;;;6168575;28;20050;-52
2023/06/27 16:03:35;;;;;;;10.60;4.73;;;;;;;;;;6168071;28;20054;-57
2023/06/27 16:06:36;;;;;;;16.40;6.27;;;;;;;;;;6166671;28;20050;-54
2023/06/27 16:09:36;;;;;;;14.27;5.27;;;;;;;;;;6169942;28;20097;-55
2023/06/27 16:12:37;;;;;;;11.47;5.13;;;;;;;;;;6169827;28;20493;-57
2023/06/27 16:15:38;;;;;;;11.53;4.40;;;;;;;;;;6170965;28;20054;-51
2023/06/27 16:18:39;;;;;;;9.27;4.47;;;;;;;;;;6166689;28;20078;-58
2023/06/27 16:21:40;;;;;;;11.10;5.27;;;;;;;;;;6166475;28;20053;-52
2023/06/27 16:24:41;;;;;;;8.25;4.35;;;;;;;;;;6169546;28;20146;-54
2023/06/27 16:27:42;;;;;;;11.07;4.60;;;;;;;;;;6171056;28;20042;-56
2023/06/27 16:30:43;;;;;;;11.93;5.20;;;;;;;;;;6167595;28;20065;-55
2023/06/27 16:33:44;;;;;;;11.10;5.63;;;;;;;;;;6178292;28;20055;-56
2023/06/27 16:36:44;;;;;;;12.27;4.60;;;;;;;;;;6172294;28;20049;-54
2023/06/27 16:39:45;;;;;;;12.67;5.10;;;;;;;;;;6167705;28;20050;-58
2023/06/27 16:42:46;;;;;;;16.00;6.00;;;;;;;;;;6166287;28;20058;-58
2023/06/27 16:45:46;;;;;;;17.00;6.73;;;;;;;;;;6171884;28;20383;-58
2023/06/27 16:48:48;;;;;;;13.40;5.03;;;;;;;;;;6163904;28;20819;-57
2023/06/27 16:51:48;;;;;;;16.02;5.22;;;;;;;;;;6170202;28;20300;-57
2023/06/27 16:54:49;;;;;;;11.07;4.63;;;;;;;;;;6172347;28;20050;-57
2023/06/27 16:57:50;;;;;;;13.50;4.83;;;;;;;;;;6167077;28;21236;-52
2023/06/27 17:00:50;;;;;;;11.87;4.83;;;;;;;;;;6163750;28;20055;-60
2023/06/27 17:03:51;;;;;;;11.73;4.70;;;;;;;;;;6170068;28;20157;-58
2023/06/27 17:06:51;;;;;;;13.47;5.03;;;;;;;;;;6164984;28;20061;-58
2023/06/27 17:09:52;;;;;;;13.33;4.70;;;;;;;;;;6165158;28;20047;-58
2023/06/27 17:12:53;;;;;;;9.70;4.32;;;;;;;;;;6169699;28;20131;-57
2023/06/27 17:15:54;;;;;;;12.53;4.60;;;;;;;;;;6173534;28;20054;-56
2023/06/27 17:18:55;;;;;;;11.48;4.40;;;;;;;;;;6160768;28;20462;-61
2023/06/27 17:21:55;;;;;;;11.77;4.47;;;;;;;;;;6172498;28;20054;-54
2023/06/27 17:24:56;;;;;;;13.70;5.10;;;;;;;;;;6172387;28;20099;-49
2023/06/27 17:27:59;;;;;;;12.83;5.63;;;;;;;;;;6168993;28;20046;-49
2023/06/27 17:31:00;;;;;;;14.90;5.00;;;;;;;;;;6163912;28;20061;-48
2023/06/27 17:34:00;;;;;;;14.57;5.43;;;;;;;;;;6166034;28;20051;-50
2023/06/27 17:37:01;;;;;;;14.07;5.10;;;;;;;;;;6168112;28;20057;-55
2023/06/27 17:40:02;;;;;;;10.23;5.20;;;;;;;;;;6160910;28;20050;-59
2023/06/27 17:43:03;;;;;;;13.70;5.35;;;;;;;;;;6167043;28;20092;-50
2023/06/27 17:46:03;;;;;;;14.23;5.60;;;;;;;;;;6168506;28;20553;-48
2023/06/27 17:49:04;;;;;;;12.93;5.27;;;;;;;;;;6167945;28;20178;-55